Terminal Aerodrome Forecast
Issued by NWS Des Moines, IA

Home | Current Version | Previous Version | Text Only | Print | Product List | Glossary On
Versions: 1 2 3 4 5 6 7 8 9 10 11 12 13 14 15 16 17 18 19 20 21 22 23 24 25 26 27 28 29 30 31 32 33 34 35 36 37 38 39 40 41 42
000
FTUS43 KDMX 242340
TAFDSM
TAF
KDSM 242340Z 2500/2524 12013KT P6SM VCSH BKN022 OVC040
     FM250300 11012KT P6SM VCSH SCT012 OVC018
     FM250900 10013G18KT 5SM -SHRA OVC008
     FM251400 07014G21KT 4SM -RA BR OVC006
     FM251900 06015G22KT P6SM OVC012=

USA.gov is the U.S. government's official web portal to all federal, state and local government web resources and services.